ELY2569 LFPB-EGBB
Flight info
| Callsign | ELY2569 |
|---|---|
| Flight time | 0h 52m |
| Altitude | 26000 |
| Route | OPALE DCT KESAX DCT DIMAL DCT ALESO T420 HEMEL |
| Aircraft | B738/M-SDE2E3FGHIRWXY/LB1 |
Departure
| Time | 2026-04-18 10:42 |
|---|---|
| Airport | Paris-Le Bourget International Airport (LFPB) |
Arrival
| Time | 2026-04-18 11:35 |
|---|---|
| Airport | Birmingham Airport (EGBB) |
| Time | Latitude | Longitude | Altitude | Speed | Heading |
|---|---|---|---|---|---|
| 2026-04-18 09:20 | 48.95390 | 2.43569 | 152 ft | 0 kts | 117° |
| 2026-04-18 10:22 | 48.95390 | 2.43567 | 152 ft | 2 kts | 117° |
| 2026-04-18 10:23 | 48.95396 | 2.43539 | 152 ft | 4 kts | 56° |
| 2026-04-18 10:23 | 48.95377 | 2.43520 | 152 ft | 4 kts | 24° |
| 2026-04-18 10:23 | 48.95367 | 2.43513 | 152 ft | 1 kts | 27° |
| 2026-04-18 10:27 | 48.95374 | 2.43518 | 152 ft | 3 kts | 27° |
| 2026-04-18 10:27 | 48.95389 | 2.43528 | 152 ft | 0 kts | 20° |
| 2026-04-18 10:28 | 48.95402 | 2.43534 | 152 ft | 5 kts | 11° |
| 2026-04-18 10:28 | 48.95451 | 2.43493 | 154 ft | 9 kts | 334° |
| 2026-04-18 10:28 | 48.95517 | 2.43509 | 154 ft | 11 kts | 24° |
| 2026-04-18 10:28 | 48.95590 | 2.43561 | 155 ft | 11 kts | 25° |
| 2026-04-18 10:29 | 48.95660 | 2.43610 | 155 ft | 8 kts | 24° |
| 2026-04-18 10:29 | 48.95663 | 2.43612 | 155 ft | 0 kts | 24° |
| 2026-04-18 10:30 | 48.95668 | 2.43616 | 155 ft | 3 kts | 24° |
| 2026-04-18 10:30 | 48.95709 | 2.43644 | 155 ft | 10 kts | 24° |
| 2026-04-18 10:30 | 48.95776 | 2.43692 | 156 ft | 11 kts | 26° |
| 2026-04-18 10:30 | 48.95844 | 2.43739 | 157 ft | 10 kts | 24° |
| 2026-04-18 10:31 | 48.95909 | 2.43785 | 159 ft | 10 kts | 25° |
| 2026-04-18 10:31 | 48.95972 | 2.43830 | 161 ft | 10 kts | 25° |
| 2026-04-18 10:31 | 48.96034 | 2.43873 | 163 ft | 10 kts | 25° |
| 2026-04-18 10:31 | 48.96094 | 2.43915 | 165 ft | 9 kts | 25° |
| 2026-04-18 10:32 | 48.96152 | 2.43957 | 168 ft | 9 kts | 25° |
| 2026-04-18 10:32 | 48.96206 | 2.44003 | 168 ft | 9 kts | 46° |
| 2026-04-18 10:32 | 48.96229 | 2.44089 | 168 ft | 9 kts | 81° |
| 2026-04-18 10:32 | 48.96239 | 2.44178 | 170 ft | 8 kts | 78° |
| 2026-04-18 10:33 | 48.96252 | 2.44263 | 171 ft | 8 kts | 78° |
| 2026-04-18 10:33 | 48.96265 | 2.44346 | 171 ft | 8 kts | 75° |
| 2026-04-18 10:33 | 48.96278 | 2.44426 | 171 ft | 8 kts | 75° |
| 2026-04-18 10:33 | 48.96294 | 2.44469 | 172 ft | 0 kts | 47° |
| 2026-04-18 10:34 | 48.96298 | 2.44473 | 172 ft | 4 kts | 40° |
| 2026-04-18 10:34 | 48.96316 | 2.44492 | 172 ft | 4 kts | 34° |
| 2026-04-18 10:35 | 48.96340 | 2.44522 | 172 ft | 7 kts | 44° |
| 2026-04-18 10:35 | 48.96390 | 2.44609 | 172 ft | 13 kts | 51° |
| 2026-04-18 10:35 | 48.96440 | 2.44703 | 178 ft | 10 kts | 53° |
| 2026-04-18 10:35 | 48.96463 | 2.44803 | 179 ft | 10 kts | 78° |
| 2026-04-18 10:36 | 48.96477 | 2.44904 | 180 ft | 10 kts | 78° |
| 2026-04-18 10:36 | 48.96492 | 2.45002 | 183 ft | 9 kts | 77° |
| 2026-04-18 10:36 | 48.96527 | 2.45081 | 189 ft | 9 kts | 36° |
| 2026-04-18 10:36 | 48.96586 | 2.45112 | 184 ft | 9 kts | 1° |
| 2026-04-18 10:37 | 48.96646 | 2.45099 | 191 ft | 9 kts | 346° |
| 2026-04-18 10:37 | 48.96704 | 2.45079 | 195 ft | 8 kts | 347° |
| 2026-04-18 10:37 | 48.96762 | 2.45059 | 196 ft | 9 kts | 347° |
| 2026-04-18 10:37 | 48.96841 | 2.45033 | 204 ft | 14 kts | 347° |
| 2026-04-18 10:38 | 48.96937 | 2.45000 | 205 ft | 14 kts | 347° |
| 2026-04-18 10:38 | 48.97007 | 2.45069 | 212 ft | 13 kts | 65° |
| 2026-04-18 10:38 | 48.97041 | 2.45196 | 215 ft | 13 kts | 67° |
| 2026-04-18 10:38 | 48.97075 | 2.45319 | 217 ft | 12 kts | 68° |
| 2026-04-18 10:39 | 48.97106 | 2.45438 | 222 ft | 12 kts | 68° |
| 2026-04-18 10:39 | 48.97138 | 2.45558 | 222 ft | 12 kts | 68° |
| 2026-04-18 10:39 | 48.97168 | 2.45672 | 224 ft | 12 kts | 68° |
| 2026-04-18 10:39 | 48.97192 | 2.45761 | 223 ft | 0 kts | 68° |
| 2026-04-18 10:40 | 48.97192 | 2.45763 | 223 ft | 1 kts | 68° |
| 2026-04-18 10:40 | 48.97201 | 2.45792 | 225 ft | 8 kts | 64° |
| 2026-04-18 10:40 | 48.97259 | 2.45870 | 225 ft | 12 kts | 25° |
| 2026-04-18 10:40 | 48.97338 | 2.45873 | 229 ft | 12 kts | 333° |
| 2026-04-18 10:41 | 48.97377 | 2.45774 | 228 ft | 11 kts | 278° |
| 2026-04-18 10:41 | 48.97371 | 2.45706 | 226 ft | 0 kts | 246° |
| 2026-04-18 10:41 | 48.97294 | 2.45423 | 224 ft | 64 kts | 248° |
| 2026-04-18 10:41 | 48.97044 | 2.44483 | 205 ft | 125 kts | 248° |
| 2026-04-18 10:42 | 48.96642 | 2.43041 | 237 ft | 165 kts | 246° |
| 2026-04-18 10:42 | 48.96231 | 2.41423 | 792 ft | 166 kts | 249° |
| 2026-04-18 10:42 | 48.95823 | 2.39678 | 1170 ft | 183 kts | 250° |
| 2026-04-18 10:42 | 48.95316 | 2.37936 | 1950 ft | 174 kts | 238° |
| 2026-04-18 10:43 | 48.94748 | 2.36268 | 2518 ft | 190 kts | 242° |
| 2026-04-18 10:43 | 48.94161 | 2.34319 | 2751 ft | 213 kts | 243° |
| 2026-04-18 10:43 | 48.93560 | 2.32145 | 2953 ft | 233 kts | 253° |
| 2026-04-18 10:43 | 48.93680 | 2.29507 | 3446 ft | 243 kts | 291° |
| 2026-04-18 10:44 | 48.94503 | 2.27459 | 3959 ft | 246 kts | 306° |
| 2026-04-18 10:44 | 48.95576 | 2.25420 | 4508 ft | 247 kts | 308° |
| 2026-04-18 10:44 | 48.96661 | 2.23392 | 5070 ft | 248 kts | 307° |
| 2026-04-18 10:44 | 48.97746 | 2.21338 | 5605 ft | 249 kts | 307° |
| 2026-04-18 10:45 | 48.98907 | 2.19316 | 5945 ft | 264 kts | 319° |
| 2026-04-18 10:45 | 49.00636 | 2.18194 | 6333 ft | 281 kts | 351° |
| 2026-04-18 10:45 | 49.02590 | 2.17956 | 7101 ft | 281 kts | 356° |
| 2026-04-18 10:45 | 49.04550 | 2.17844 | 7853 ft | 283 kts | 355° |
| 2026-04-18 10:46 | 49.06526 | 2.17747 | 8568 ft | 286 kts | 355° |
| 2026-04-18 10:46 | 49.08540 | 2.17643 | 9252 ft | 291 kts | 354° |
| 2026-04-18 10:46 | 49.10574 | 2.17530 | 10020 ft | 293 kts | 354° |
| 2026-04-18 10:46 | 49.12631 | 2.17406 | 10608 ft | 298 kts | 353° |
| 2026-04-18 10:47 | 49.13997 | 2.17320 | 11093 ft | 297 kts | 353° |
| 2026-04-18 10:47 | 49.16780 | 2.17142 | 12012 ft | 301 kts | 353° |
| 2026-04-18 10:47 | 49.18890 | 2.17002 | 12675 ft | 305 kts | 353° |
| 2026-04-18 10:47 | 49.21033 | 2.16858 | 13377 ft | 309 kts | 352° |
| 2026-04-18 10:48 | 49.23186 | 2.16713 | 14072 ft | 312 kts | 352° |
| 2026-04-18 10:48 | 49.25361 | 2.16566 | 14712 ft | 315 kts | 352° |
| 2026-04-18 10:48 | 49.27567 | 2.16416 | 15370 ft | 318 kts | 352° |
| 2026-04-18 10:48 | 49.29785 | 2.16266 | 16042 ft | 321 kts | 352° |
| 2026-04-18 10:49 | 49.32029 | 2.16113 | 16707 ft | 324 kts | 352° |
| 2026-04-18 10:49 | 49.34290 | 2.15958 | 17369 ft | 327 kts | 351° |
| 2026-04-18 10:49 | 49.36578 | 2.15802 | 18020 ft | 331 kts | 351° |
| 2026-04-18 10:49 | 49.38866 | 2.15646 | 18635 ft | 335 kts | 351° |
| 2026-04-18 10:50 | 49.41203 | 2.15487 | 19185 ft | 338 kts | 351° |
| 2026-04-18 10:50 | 49.43559 | 2.15276 | 19758 ft | 338 kts | 345° |
| 2026-04-18 10:50 | 49.45808 | 2.14287 | 20343 ft | 331 kts | 333° |
| 2026-04-18 10:50 | 49.47938 | 2.13043 | 20911 ft | 333 kts | 332° |
| 2026-04-18 10:51 | 49.50107 | 2.11743 | 21455 ft | 336 kts | 332° |
| 2026-04-18 10:51 | 49.52303 | 2.10432 | 22018 ft | 340 kts | 332° |
| 2026-04-18 10:51 | 49.54521 | 2.09122 | 22577 ft | 343 kts | 332° |
| 2026-04-18 10:51 | 49.56761 | 2.07811 | 23135 ft | 346 kts | 332° |
| 2026-04-18 10:52 | 49.59021 | 2.06496 | 23674 ft | 349 kts | 332° |
| 2026-04-18 10:52 | 49.61375 | 2.05132 | 24147 ft | 352 kts | 332° |
| 2026-04-18 10:52 | 49.63601 | 2.03844 | 24597 ft | 354 kts | 332° |
| 2026-04-18 10:52 | 49.65911 | 2.02509 | 25064 ft | 355 kts | 331° |
| 2026-04-18 10:53 | 49.68236 | 2.01164 | 25512 ft | 358 kts | 331° |
| 2026-04-18 10:53 | 49.70570 | 1.99812 | 25957 ft | 360 kts | 331° |
| 2026-04-18 10:53 | 49.72928 | 1.98444 | 26204 ft | 364 kts | 331° |
| 2026-04-18 10:53 | 49.75335 | 1.97041 | 26226 ft | 376 kts | 331° |
| 2026-04-18 10:54 | 49.77006 | 1.96066 | 26226 ft | 384 kts | 331° |
| 2026-04-18 10:54 | 49.80383 | 1.94098 | 26249 ft | 399 kts | 332° |
| 2026-04-18 10:54 | 49.83017 | 1.92566 | 26227 ft | 410 kts | 332° |
| 2026-04-18 10:54 | 49.85718 | 1.90994 | 26229 ft | 419 kts | 332° |
| 2026-04-18 10:55 | 49.88481 | 1.89383 | 26231 ft | 428 kts | 332° |
| 2026-04-18 10:55 | 49.91147 | 1.87357 | 26202 ft | 423 kts | 317° |
| 2026-04-18 10:55 | 49.93450 | 1.84491 | 26232 ft | 426 kts | 314° |
| 2026-04-18 10:55 | 49.95754 | 1.81531 | 26283 ft | 433 kts | 313° |
| 2026-04-18 10:56 | 49.98099 | 1.78559 | 26254 ft | 437 kts | 314° |
| 2026-04-18 10:56 | 50.00447 | 1.75631 | 26231 ft | 437 kts | 314° |
| 2026-04-18 10:56 | 50.02854 | 1.72660 | 26229 ft | 436 kts | 314° |
| 2026-04-18 10:56 | 50.05221 | 1.69738 | 26229 ft | 435 kts | 314° |
| 2026-04-18 10:57 | 50.07662 | 1.67004 | 26219 ft | 441 kts | 321° |
| 2026-04-18 10:57 | 50.10421 | 1.64805 | 26234 ft | 447 kts | 328° |
| 2026-04-18 10:57 | 50.13255 | 1.62804 | 26234 ft | 448 kts | 328° |
| 2026-04-18 10:57 | 50.16097 | 1.60811 | 26240 ft | 448 kts | 328° |
| 2026-04-18 10:58 | 50.18933 | 1.58803 | 26283 ft | 448 kts | 328° |
| 2026-04-18 10:58 | 50.21768 | 1.56770 | 26247 ft | 449 kts | 328° |
| 2026-04-18 10:58 | 50.23684 | 1.55385 | 26244 ft | 448 kts | 327° |
| 2026-04-18 10:58 | 50.26511 | 1.53329 | 26238 ft | 448 kts | 327° |
| 2026-04-18 10:59 | 50.29296 | 1.51296 | 26228 ft | 448 kts | 327° |
| 2026-04-18 10:59 | 50.32119 | 1.49230 | 26249 ft | 448 kts | 327° |
| 2026-04-18 10:59 | 50.34941 | 1.47162 | 26245 ft | 448 kts | 327° |
| 2026-04-18 10:59 | 50.37759 | 1.45094 | 26241 ft | 448 kts | 327° |
| 2026-04-18 11:00 | 50.40589 | 1.43015 | 26226 ft | 449 kts | 327° |
| 2026-04-18 11:00 | 50.43414 | 1.40938 | 26256 ft | 448 kts | 327° |
| 2026-04-18 11:00 | 50.46243 | 1.38855 | 26256 ft | 447 kts | 326° |
| 2026-04-18 11:00 | 50.48902 | 1.36430 | 26241 ft | 438 kts | 317° |
| 2026-04-18 11:01 | 50.51250 | 1.33464 | 26242 ft | 429 kts | 309° |
| 2026-04-18 11:01 | 50.53261 | 1.30057 | 26248 ft | 424 kts | 305° |
| 2026-04-18 11:01 | 50.55222 | 1.26601 | 26240 ft | 424 kts | 306° |
| 2026-04-18 11:02 | 50.59229 | 1.19792 | 26235 ft | 425 kts | 308° |
| 2026-04-18 11:02 | 50.61315 | 1.16485 | 26236 ft | 426 kts | 308° |
| 2026-04-18 11:02 | 50.63419 | 1.13210 | 26240 ft | 426 kts | 309° |
| 2026-04-18 11:02 | 50.65527 | 1.09929 | 26277 ft | 426 kts | 309° |
| 2026-04-18 11:03 | 50.67634 | 1.06628 | 26245 ft | 427 kts | 309° |
| 2026-04-18 11:03 | 50.69733 | 1.03315 | 26249 ft | 427 kts | 309° |
| 2026-04-18 11:03 | 50.71833 | 0.99983 | 26243 ft | 428 kts | 308° |
| 2026-04-18 11:03 | 50.73899 | 0.96695 | 26242 ft | 428 kts | 308° |
| 2026-04-18 11:04 | 50.75993 | 0.93353 | 26264 ft | 428 kts | 309° |
| 2026-04-18 11:04 | 50.78090 | 0.90003 | 26256 ft | 429 kts | 309° |
| 2026-04-18 11:04 | 50.80184 | 0.86652 | 26247 ft | 429 kts | 309° |
| 2026-04-18 11:04 | 50.82288 | 0.83283 | 26244 ft | 430 kts | 309° |
| 2026-04-18 11:05 | 50.84386 | 0.79920 | 26243 ft | 430 kts | 309° |
| 2026-04-18 11:05 | 50.86489 | 0.76549 | 26245 ft | 430 kts | 309° |
| 2026-04-18 11:05 | 50.88597 | 0.73183 | 26247 ft | 431 kts | 309° |
| 2026-04-18 11:05 | 50.90709 | 0.69816 | 26203 ft | 431 kts | 309° |
| 2026-04-18 11:06 | 50.92825 | 0.66439 | 26175 ft | 431 kts | 309° |
| 2026-04-18 11:06 | 50.94923 | 0.63086 | 26132 ft | 423 kts | 309° |
| 2026-04-18 11:06 | 50.96952 | 0.59847 | 26096 ft | 404 kts | 308° |
| 2026-04-18 11:06 | 50.98878 | 0.56735 | 26073 ft | 387 kts | 308° |
| 2026-04-18 11:07 | 51.00713 | 0.53739 | 26041 ft | 370 kts | 307° |
| 2026-04-18 11:07 | 51.02470 | 0.50858 | 26024 ft | 359 kts | 307° |
| 2026-04-18 11:07 | 51.04206 | 0.48006 | 26017 ft | 360 kts | 307° |
| 2026-04-18 11:07 | 51.05960 | 0.45124 | 26019 ft | 365 kts | 307° |
| 2026-04-18 11:08 | 51.07748 | 0.42226 | 25986 ft | 368 kts | 308° |
| 2026-04-18 11:08 | 51.09587 | 0.39406 | 25965 ft | 367 kts | 309° |
| 2026-04-18 11:08 | 51.11440 | 0.36621 | 25967 ft | 366 kts | 309° |
| 2026-04-18 11:08 | 51.13295 | 0.33836 | 25970 ft | 366 kts | 309° |
| 2026-04-18 11:09 | 51.15143 | 0.31047 | 25963 ft | 365 kts | 309° |
| 2026-04-18 11:09 | 51.16982 | 0.28255 | 25970 ft | 364 kts | 309° |
| 2026-04-18 11:09 | 51.18810 | 0.25467 | 25987 ft | 365 kts | 309° |
| 2026-04-18 11:09 | 51.20641 | 0.22668 | 26004 ft | 365 kts | 309° |
| 2026-04-18 11:10 | 51.22474 | 0.19858 | 26031 ft | 365 kts | 309° |
| 2026-04-18 11:10 | 51.24304 | 0.17049 | 26053 ft | 366 kts | 309° |
| 2026-04-18 11:10 | 51.26139 | 0.14230 | 26072 ft | 366 kts | 309° |
| 2026-04-18 11:10 | 51.27977 | 0.11403 | 26095 ft | 367 kts | 309° |
| 2026-04-18 11:11 | 51.29810 | 0.08585 | 26072 ft | 362 kts | 309° |
| 2026-04-18 11:11 | 51.31612 | 0.05814 | 25729 ft | 359 kts | 309° |
| 2026-04-18 11:11 | 51.33498 | 0.03150 | 25323 ft | 365 kts | 316° |
| 2026-04-18 11:11 | 51.35659 | 0.00929 | 24801 ft | 372 kts | 321° |
| 2026-04-18 11:12 | 51.37893 | -0.01163 | 24373 ft | 371 kts | 322° |
| 2026-04-18 11:12 | 51.40090 | -0.03198 | 23977 ft | 369 kts | 322° |
| 2026-04-18 11:12 | 51.42302 | -0.05258 | 23540 ft | 366 kts | 322° |
| 2026-04-18 11:12 | 51.44518 | -0.07338 | 23067 ft | 363 kts | 322° |
| 2026-04-18 11:13 | 51.46658 | -0.09363 | 22632 ft | 361 kts | 322° |
| 2026-04-18 11:13 | 51.48837 | -0.11434 | 22266 ft | 357 kts | 322° |
| 2026-04-18 11:13 | 51.50951 | -0.13452 | 22265 ft | 360 kts | 322° |
| 2026-04-18 11:13 | 51.53102 | -0.15511 | 22232 ft | 360 kts | 322° |
| 2026-04-18 11:14 | 51.55251 | -0.17568 | 22232 ft | 359 kts | 322° |
| 2026-04-18 11:14 | 51.57420 | -0.19647 | 22261 ft | 359 kts | 322° |
| 2026-04-18 11:14 | 51.59573 | -0.21722 | 22191 ft | 373 kts | 322° |
| 2026-04-18 11:14 | 51.61843 | -0.23908 | 22179 ft | 387 kts | 322° |
| 2026-04-18 11:15 | 51.64197 | -0.26173 | 22172 ft | 401 kts | 322° |
| 2026-04-18 11:15 | 51.66625 | -0.28507 | 22169 ft | 411 kts | 323° |
| 2026-04-18 11:15 | 51.69098 | -0.30871 | 22160 ft | 413 kts | 323° |
| 2026-04-18 11:15 | 51.71560 | -0.33217 | 22146 ft | 410 kts | 323° |
| 2026-04-18 11:16 | 51.74014 | -0.35562 | 22145 ft | 408 kts | 323° |
| 2026-04-18 11:16 | 51.76454 | -0.37901 | 22148 ft | 407 kts | 323° |
| 2026-04-18 11:16 | 51.78885 | -0.40236 | 22204 ft | 406 kts | 323° |
| 2026-04-18 11:16 | 51.81313 | -0.42576 | 22243 ft | 406 kts | 322° |
| 2026-04-18 11:17 | 51.83723 | -0.44921 | 22220 ft | 400 kts | 322° |
| 2026-04-18 11:17 | 51.86060 | -0.47199 | 22067 ft | 386 kts | 322° |
| 2026-04-18 11:17 | 51.88321 | -0.49412 | 21482 ft | 375 kts | 322° |
| 2026-04-18 11:17 | 51.90557 | -0.51612 | 20598 ft | 374 kts | 322° |
| 2026-04-18 11:18 | 51.92736 | -0.53746 | 20354 ft | 367 kts | 322° |
| 2026-04-18 11:18 | 51.94967 | -0.55949 | 20065 ft | 382 kts | 322° |
| 2026-04-18 11:18 | 51.97280 | -0.58224 | 19715 ft | 393 kts | 322° |
| 2026-04-18 11:18 | 51.99627 | -0.60518 | 19365 ft | 394 kts | 322° |
| 2026-04-18 11:19 | 52.01964 | -0.62793 | 19013 ft | 390 kts | 322° |
| 2026-04-18 11:19 | 52.04285 | -0.65058 | 18671 ft | 388 kts | 322° |
| 2026-04-18 11:19 | 52.06600 | -0.67325 | 18336 ft | 389 kts | 322° |
| 2026-04-18 11:19 | 52.08919 | -0.69605 | 17939 ft | 388 kts | 322° |
| 2026-04-18 11:20 | 52.11205 | -0.71853 | 17576 ft | 381 kts | 323° |
| 2026-04-18 11:20 | 52.13459 | -0.74073 | 17241 ft | 378 kts | 323° |
| 2026-04-18 11:20 | 52.15710 | -0.76298 | 16911 ft | 378 kts | 323° |
| 2026-04-18 11:20 | 52.17953 | -0.78515 | 16575 ft | 377 kts | 323° |
| 2026-04-18 11:21 | 52.20196 | -0.80732 | 16238 ft | 376 kts | 323° |
| 2026-04-18 11:21 | 52.22400 | -0.82990 | 15908 ft | 372 kts | 318° |
| 2026-04-18 11:21 | 52.24174 | -0.85966 | 15577 ft | 361 kts | 300° |
| 2026-04-18 11:21 | 52.25331 | -0.89538 | 15269 ft | 353 kts | 287° |
| 2026-04-18 11:22 | 52.25965 | -0.93378 | 14995 ft | 350 kts | 280° |
| 2026-04-18 11:22 | 52.26480 | -0.97253 | 14674 ft | 349 kts | 279° |
| 2026-04-18 11:22 | 52.26979 | -1.01129 | 14376 ft | 349 kts | 280° |
| 2026-04-18 11:22 | 52.27484 | -1.05002 | 14058 ft | 349 kts | 280° |
| 2026-04-18 11:23 | 52.27996 | -1.08874 | 13744 ft | 348 kts | 281° |
| 2026-04-18 11:23 | 52.28501 | -1.12629 | 13600 ft | 329 kts | 281° |
| 2026-04-18 11:23 | 52.28981 | -1.16179 | 13451 ft | 310 kts | 281° |
| 2026-04-18 11:23 | 52.29432 | -1.19506 | 13308 ft | 291 kts | 280° |
| 2026-04-18 11:24 | 52.29855 | -1.22640 | 13141 ft | 275 kts | 280° |
| 2026-04-18 11:24 | 52.30262 | -1.25662 | 12689 ft | 270 kts | 281° |
| 2026-04-18 11:24 | 52.30665 | -1.28659 | 12121 ft | 271 kts | 281° |
| 2026-04-18 11:24 | 52.31061 | -1.31610 | 11932 ft | 257 kts | 281° |
| 2026-04-18 11:25 | 52.31435 | -1.34386 | 11818 ft | 243 kts | 281° |
| 2026-04-18 11:25 | 52.31785 | -1.37003 | 11698 ft | 229 kts | 281° |
| 2026-04-18 11:25 | 52.32121 | -1.39518 | 11382 ft | 225 kts | 281° |
| 2026-04-18 11:25 | 52.32446 | -1.41960 | 11116 ft | 215 kts | 281° |
| 2026-04-18 11:26 | 52.32755 | -1.44280 | 10911 ft | 202 kts | 281° |
| 2026-04-18 11:26 | 52.33043 | -1.46445 | 10723 ft | 187 kts | 281° |
| 2026-04-18 11:26 | 52.33302 | -1.48400 | 10581 ft | 164 kts | 281° |
| 2026-04-18 11:26 | 52.33537 | -1.50174 | 10441 ft | 160 kts | 281° |
| 2026-04-18 11:27 | 52.33771 | -1.51946 | 10317 ft | 160 kts | 281° |
| 2026-04-18 11:27 | 52.34057 | -1.53729 | 10040 ft | 170 kts | 290° |
| 2026-04-18 11:27 | 52.34542 | -1.55495 | 9551 ft | 168 kts | 289° |
| 2026-04-18 11:27 | 52.34789 | -1.57311 | 9079 ft | 160 kts | 273° |
| 2026-04-18 11:28 | 52.34691 | -1.59082 | 8621 ft | 155 kts | 257° |
| 2026-04-18 11:28 | 52.34306 | -1.60730 | 8203 ft | 156 kts | 254° |
| 2026-04-18 11:28 | 52.34400 | -1.62416 | 7745 ft | 153 kts | 304° |
| 2026-04-18 11:28 | 52.35198 | -1.63558 | 7350 ft | 152 kts | 307° |
| 2026-04-18 11:29 | 52.35381 | -1.65156 | 6942 ft | 149 kts | 250° |
| 2026-04-18 11:29 | 52.34578 | -1.66221 | 6541 ft | 165 kts | 194° |
| 2026-04-18 11:29 | 52.33395 | -1.65632 | 6042 ft | 182 kts | 137° |
| 2026-04-18 11:29 | 52.32696 | -1.64049 | 5580 ft | 185 kts | 130° |
| 2026-04-18 11:30 | 52.32009 | -1.62260 | 5062 ft | 183 kts | 114° |
| 2026-04-18 11:30 | 52.31530 | -1.60348 | 4541 ft | 181 kts | 106° |
| 2026-04-18 11:30 | 52.31636 | -1.58406 | 4014 ft | 173 kts | 56° |
| 2026-04-18 11:30 | 52.32535 | -1.57400 | 3593 ft | 152 kts | 356° |
| 2026-04-18 11:31 | 52.33396 | -1.58089 | 3322 ft | 140 kts | 296° |
| 2026-04-18 11:31 | 52.33717 | -1.59613 | 3140 ft | 146 kts | 296° |
| 2026-04-18 11:31 | 52.34300 | -1.60987 | 2951 ft | 146 kts | 302° |
| 2026-04-18 11:31 | 52.34883 | -1.62336 | 2754 ft | 145 kts | 307° |
| 2026-04-18 11:32 | 52.35606 | -1.63500 | 2581 ft | 147 kts | 315° |
| 2026-04-18 11:32 | 52.36392 | -1.64602 | 2374 ft | 148 kts | 316° |
| 2026-04-18 11:32 | 52.37204 | -1.65642 | 2165 ft | 149 kts | 319° |
| 2026-04-18 11:32 | 52.38046 | -1.66611 | 1957 ft | 147 kts | 320° |
| 2026-04-18 11:33 | 52.38890 | -1.67559 | 1763 ft | 147 kts | 321° |
| 2026-04-18 11:33 | 52.39737 | -1.68503 | 1553 ft | 146 kts | 321° |
| 2026-04-18 11:33 | 52.40573 | -1.69436 | 1345 ft | 146 kts | 321° |
| 2026-04-18 11:33 | 52.41430 | -1.70391 | 1149 ft | 150 kts | 321° |
| 2026-04-18 11:34 | 52.42297 | -1.71330 | 972 ft | 150 kts | 322° |
| 2026-04-18 11:34 | 52.43178 | -1.72285 | 740 ft | 151 kts | 317° |
| 2026-04-18 11:34 | 52.44011 | -1.73289 | 553 ft | 151 kts | 324° |
| 2026-04-18 11:34 | 52.44890 | -1.74237 | 331 ft | 143 kts | 319° |
| 2026-04-18 11:35 | 52.45397 | -1.74833 | 321 ft | 125 kts | 327° |
| 2026-04-18 11:35 | 52.46030 | -1.75527 | 309 ft | 39 kts | 328° |
| 2026-04-18 11:35 | 52.46180 | -1.75546 | 310 ft | 19 kts | 50° |
| 2026-04-18 11:35 | 52.46170 | -1.75348 | 302 ft | 21 kts | 136° |
| 2026-04-18 11:36 | 52.46052 | -1.75220 | 303 ft | 20 kts | 146° |
| 2026-04-18 11:36 | 52.45936 | -1.75095 | 305 ft | 20 kts | 145° |
| 2026-04-18 11:36 | 52.45829 | -1.74965 | 308 ft | 19 kts | 146° |
| 2026-04-18 11:36 | 52.45721 | -1.74848 | 310 ft | 18 kts | 146° |
| 2026-04-18 11:37 | 52.45618 | -1.74732 | 317 ft | 18 kts | 145° |
| 2026-04-18 11:37 | 52.45550 | -1.74656 | 322 ft | 9 kts | 146° |
| 2026-04-18 11:37 | 52.45496 | -1.74597 | 322 ft | 9 kts | 146° |
| 2026-04-18 11:37 | 52.45458 | -1.74515 | 322 ft | 10 kts | 116° |
| 2026-04-18 11:38 | 52.45427 | -1.74416 | 322 ft | 10 kts | 118° |
| 2026-04-18 11:38 | 52.45396 | -1.74318 | 322 ft | 9 kts | 117° |
| 2026-04-18 11:38 | 52.45376 | -1.74255 | 321 ft | 9 kts | 117° |
| 2026-04-18 11:38 | 52.45349 | -1.74160 | 321 ft | 9 kts | 116° |
| 2026-04-18 11:39 | 52.45320 | -1.74070 | 321 ft | 9 kts | 117° |
| 2026-04-18 11:39 | 52.45288 | -1.73987 | 322 ft | 9 kts | 137° |
| 2026-04-18 11:39 | 52.45241 | -1.73930 | 322 ft | 8 kts | 146° |
| 2026-04-18 11:39 | 52.45193 | -1.73877 | 322 ft | 8 kts | 145° |
| 2026-04-18 11:40 | 52.45148 | -1.73826 | 322 ft | 8 kts | 146° |
| 2026-04-18 11:40 | 52.45107 | -1.73770 | 322 ft | 8 kts | 120° |
| 2026-04-18 11:40 | 52.45114 | -1.73690 | 322 ft | 7 kts | 60° |
| 2026-04-18 11:40 | 52.45141 | -1.73621 | 322 ft | 7 kts | 54° |
| 2026-04-18 11:41 | 52.45168 | -1.73560 | 322 ft | 5 kts | 53° |
| 2026-04-18 11:41 | 52.45199 | -1.73561 | 322 ft | 5 kts | 330° |
| 2026-04-18 11:41 | 52.45220 | -1.73585 | 322 ft | 2 kts | 325° |
| 2026-04-18 11:41 | 52.45233 | -1.73601 | 322 ft | 2 kts | 326° |
| 2026-04-18 11:42 | 52.45241 | -1.73610 | 321 ft | 0 kts | 326° |
| 2026-04-18 11:42 | 52.45243 | -1.73612 | 321 ft | 0 kts | 326° |